createdAt,value
2023-05-15T00:01:25.773Z,5.97
2023-05-15T00:03:55.076Z,6.43
2023-05-15T00:06:23.287Z,6.93
2023-05-15T00:08:51.269Z,7.43
2023-05-15T00:11:21.465Z,6.93
2023-05-15T00:13:49.383Z,7.27
2023-05-15T00:16:17.828Z,7.67
2023-05-15T00:18:46.138Z,7.90
2023-05-15T00:21:14.189Z,7.43
2023-05-15T00:23:42.181Z,7.20
2023-05-15T00:26:10.206Z,7.80
2023-05-15T00:28:39.535Z,7.70
2023-05-15T00:31:08.642Z,7.70
2023-05-15T00:33:36.677Z,7.90
2023-05-15T00:36:04.813Z,7.90
2023-05-15T00:38:33.621Z,8.33
2023-05-15T00:41:02.316Z,8.07
2023-05-15T00:43:31.324Z,9.40
2023-05-15T00:46:02.215Z,9.10
2023-05-15T00:48:31.001Z,8.77
2023-05-15T00:51:00.087Z,8.93
2023-05-15T00:53:28.380Z,9.30
2023-05-15T00:55:58.665Z,9.00
2023-05-15T00:58:29.352Z,9.47
2023-05-15T01:00:57.444Z,8.90
2023-05-15T01:03:27.059Z,9.47
2023-05-15T01:05:55.179Z,8.80
2023-05-15T01:08:28.631Z,9.20
2023-05-15T01:10:58.063Z,8.73
2023-05-15T01:13:26.003Z,8.87
2023-05-15T01:15:55.722Z,8.37
2023-05-15T01:18:24.013Z,9.47
2023-05-15T01:21:12.144Z,9.03
2023-05-15T01:23:48.883Z,9.00
2023-05-15T01:26:48.690Z,8.50
2023-05-15T01:29:25.631Z,8.57
2023-05-15T01:31:59.882Z,9.27
2023-05-15T01:34:35.202Z,8.60
2023-05-15T01:37:05.154Z,8.97
2023-05-15T01:39:37.054Z,8.27
2023-05-15T01:42:09.207Z,8.63
2023-05-15T01:44:42.449Z,8.30
2023-05-15T01:47:14.184Z,8.03
2023-05-15T01:49:44.144Z,7.67
2023-05-15T01:52:17.369Z,8.07
2023-05-15T01:54:47.110Z,7.73
2023-05-15T01:57:16.464Z,8.40
2023-05-15T01:59:46.356Z,8.33
2023-05-15T02:02:16.439Z,8.63
2023-05-15T02:04:46.624Z,8.03
2023-05-15T02:07:16.004Z,8.47
2023-05-15T02:09:45.305Z,8.40
2023-05-15T02:12:14.421Z,8.77
2023-05-15T02:14:42.540Z,9.13
2023-05-15T02:17:12.190Z,8.67
2023-05-15T02:19:40.160Z,8.47
2023-05-15T02:22:08.145Z,9.07
2023-05-15T02:24:36.159Z,9.17
2023-05-15T02:27:10.534Z,8.87
2023-05-15T02:29:50.505Z,9.20
2023-05-15T02:32:27.993Z,8.80
2023-05-15T02:35:04.880Z,8.63
2023-05-15T02:37:35.159Z,8.40
2023-05-15T02:40:06.993Z,9.17
2023-05-15T02:42:35.743Z,8.77
2023-05-15T02:45:04.235Z,8.83
2023-05-15T02:47:36.209Z,8.57
2023-05-15T02:50:05.416Z,9.03
2023-05-15T02:52:34.746Z,8.27
2023-05-15T02:55:02.873Z,9.07
2023-05-15T02:57:31.168Z,9.40
2023-05-15T02:59:59.481Z,9.53
2023-05-15T03:02:27.580Z,9.37
2023-05-15T03:04:57.033Z,10.03
2023-05-15T03:07:25.056Z,10.53
2023-05-15T03:09:53.045Z,10.33
2023-05-15T03:12:21.111Z,10.97
2023-05-15T03:14:49.182Z,11.13
2023-05-15T03:17:17.275Z,11.47
2023-05-15T03:19:45.362Z,12.00
2023-05-15T03:22:15.068Z,11.70
2023-05-15T03:24:44.503Z,12.70
2023-05-15T03:27:12.569Z,12.57
2023-05-15T03:29:40.628Z,12.73
2023-05-15T03:32:08.665Z,12.80
2023-05-15T03:34:37.117Z,13.53
2023-05-15T03:37:05.372Z,13.23
2023-05-15T03:39:34.822Z,13.17
2023-05-15T03:42:02.826Z,13.80
2023-05-15T03:44:30.884Z,14.20
2023-05-15T03:46:58.956Z,13.30
2023-05-15T03:49:27.186Z,13.50
2023-05-15T03:51:55.284Z,13.57
2023-05-15T03:54:25.045Z,13.67
2023-05-15T03:57:00.633Z,13.27
2023-05-15T03:59:28.827Z,13.57
2023-05-15T04:04:30.666Z,14.83
2023-05-15T04:06:58.830Z,14.47
2023-05-15T04:09:26.888Z,13.57
2023-05-15T04:11:54.876Z,13.70
2023-05-15T04:14:24.372Z,13.83
2023-05-15T04:16:52.565Z,13.50
2023-05-15T04:19:20.838Z,13.27
2023-05-15T04:21:48.943Z,13.53
2023-05-15T04:24:16.975Z,14.13
2023-05-15T04:26:45.053Z,13.67
2023-05-15T04:29:13.241Z,12.90
2023-05-15T04:31:42.975Z,12.60
2023-05-15T04:34:11.117Z,13.30
2023-05-15T04:36:40.629Z,14.03
2023-05-15T04:39:10.117Z,13.17
2023-05-15T04:41:38.204Z,13.00
2023-05-15T04:44:07.224Z,13.23
2023-05-15T04:46:37.371Z,12.77
2023-05-15T04:49:07.662Z,14.07
2023-05-15T04:51:35.831Z,14.00
2023-05-15T04:54:03.995Z,13.23
2023-05-15T04:56:33.534Z,14.00
2023-05-15T04:59:02.153Z,13.83
2023-05-15T05:01:30.533Z,14.67
2023-05-15T05:03:58.712Z,14.77
2023-05-15T05:06:30.346Z,13.83
2023-05-15T05:08:59.372Z,14.50
2023-05-15T05:11:27.473Z,14.50
2023-05-15T05:13:55.816Z,13.57
2023-05-15T05:16:25.686Z,14.80
2023-05-15T05:18:54.020Z,14.00
2023-05-15T05:21:22.197Z,14.33
2023-05-15T05:23:51.789Z,15.00
2023-05-15T05:26:20.523Z,13.97
2023-05-15T05:28:48.563Z,14.10
2023-05-15T05:31:16.755Z,14.07
2023-05-15T05:33:44.874Z,13.63
2023-05-15T05:36:12.910Z,13.63
2023-05-15T05:38:40.958Z,14.03
2023-05-15T05:41:10.465Z,13.83
2023-05-15T05:43:38.428Z,14.47
2023-05-15T05:46:07.448Z,14.90
2023-05-15T05:48:35.749Z,14.17
2023-05-15T05:51:03.824Z,15.37
2023-05-15T05:53:31.829Z,14.47
2023-05-15T05:55:59.950Z,15.07
2023-05-15T05:58:29.420Z,16.13
2023-05-15T06:00:57.601Z,16.40
2023-05-15T06:03:25.988Z,16.07
2023-05-15T06:05:54.200Z,15.73
2023-05-15T06:08:22.492Z,15.47
2023-05-15T06:10:50.569Z,16.10
2023-05-15T06:13:19.059Z,16.93
2023-05-15T06:15:48.402Z,16.10
2023-05-15T06:18:16.448Z,16.47
2023-05-15T06:20:44.635Z,15.67
2023-05-15T06:23:12.753Z,17.23
2023-05-15T06:25:41.101Z,16.37
2023-05-15T06:28:09.425Z,34.73
2023-05-15T06:30:37.548Z,25.23
2023-05-15T06:33:07.228Z,30.07
2023-05-15T06:35:35.695Z,18.50
2023-05-15T06:38:04.053Z,53.23
2023-05-15T06:40:32.293Z,21.03
2023-05-15T06:43:00.403Z,22.73
2023-05-15T06:45:28.863Z,17.63
2023-05-15T06:47:59.291Z,17.60
2023-05-15T06:50:31.094Z,23.17
2023-05-15T06:53:00.376Z,21.63
2023-05-15T06:55:28.497Z,18.90
2023-05-15T06:57:56.757Z,47.63
2023-05-15T07:00:24.900Z,19.00
2023-05-15T07:02:53.105Z,18.00
2023-05-15T07:05:21.878Z,17.87
2023-05-15T07:07:51.324Z,17.37
2023-05-15T07:10:19.412Z,17.17
2023-05-15T07:12:47.510Z,16.83
2023-05-15T07:15:18.442Z,16.40
2023-05-15T07:17:46.579Z,15.77
2023-05-15T07:20:14.811Z,15.30
2023-05-15T07:22:52.327Z,15.63
2023-05-15T07:25:26.022Z,15.10
2023-05-15T07:27:54.278Z,15.93
2023-05-15T07:30:23.109Z,15.20
2023-05-15T07:32:51.598Z,14.67
2023-05-15T07:35:19.843Z,15.10
2023-05-15T07:37:47.993Z,15.20
2023-05-15T07:40:16.600Z,14.97
2023-05-15T07:42:47.053Z,15.10
2023-05-15T07:45:15.260Z,13.87
2023-05-15T07:47:47.318Z,14.40
2023-05-15T07:50:15.861Z,14.00
2023-05-15T07:52:44.340Z,14.10
2023-05-15T07:55:13.038Z,13.50
2023-05-15T07:57:41.287Z,13.87
2023-05-15T08:00:13.607Z,13.50
2023-05-15T08:02:42.658Z,13.23
2023-05-15T08:05:11.148Z,13.47
2023-05-15T08:07:39.366Z,11.87
2023-05-15T08:10:08.637Z,11.40
2023-05-15T08:12:36.739Z,11.27
2023-05-15T08:15:05.371Z,11.73
2023-05-15T08:17:35.097Z,11.27
2023-05-15T08:20:05.034Z,11.07
2023-05-15T08:22:33.441Z,10.13
2023-05-15T08:25:03.866Z,9.70
2023-05-15T08:27:32.037Z,8.90
2023-05-15T08:30:00.303Z,8.57
2023-05-15T08:32:29.149Z,8.43
2023-05-15T08:34:59.262Z,8.90
2023-05-15T08:37:27.335Z,7.93
2023-05-15T08:39:55.378Z,8.17
2023-05-15T08:42:28.210Z,7.63
2023-05-15T08:44:56.930Z,7.23
2023-05-15T08:47:25.922Z,7.80
2023-05-15T08:50:01.372Z,7.43
2023-05-15T08:52:30.264Z,7.30
2023-05-15T08:54:58.934Z,6.30
2023-05-15T08:57:28.652Z,6.50
2023-05-15T08:59:58.011Z,6.13
2023-05-15T09:02:26.679Z,5.73
2023-05-15T09:04:55.155Z,5.60
2023-05-15T09:07:25.081Z,5.40
2023-05-15T09:09:54.273Z,4.80
2023-05-15T09:12:24.703Z,5.23
2023-05-15T09:14:53.075Z,5.00
2023-05-15T09:17:21.159Z,5.00
2023-05-15T09:19:49.229Z,5.03
2023-05-15T09:22:23.566Z,4.70
2023-05-15T09:24:55.360Z,5.40
2023-05-15T09:27:23.461Z,5.33
2023-05-15T09:29:56.374Z,4.13
2023-05-15T09:32:29.249Z,25.40
2023-05-15T09:34:57.309Z,5.45
2023-05-15T09:37:32.764Z,3.70
2023-05-15T09:40:10.956Z,3.30
2023-05-15T09:42:39.583Z,3.55
2023-05-15T09:45:17.908Z,4.13
2023-05-15T09:47:47.168Z,3.47
2023-05-15T09:50:22.032Z,3.13
2023-05-15T09:52:51.446Z,3.20
2023-05-15T09:55:22.939Z,3.13
2023-05-15T09:58:08.263Z,2.90
2023-05-15T10:00:48.308Z,2.83
2023-05-15T10:03:18.308Z,3.05
2023-05-15T10:05:46.532Z,3.40
2023-05-15T10:08:16.114Z,3.10
2023-05-15T10:10:47.113Z,3.40
2023-05-15T10:13:15.101Z,3.40
2023-05-15T10:15:43.727Z,3.58
2023-05-15T10:18:12.680Z,3.60
2023-05-15T10:20:40.956Z,3.10
2023-05-15T10:23:12.134Z,3.20
2023-05-15T10:25:51.354Z,3.80
2023-05-15T10:28:20.944Z,3.42
2023-05-15T10:30:50.659Z,3.83
2023-05-15T10:33:20.460Z,3.87
2023-05-15T10:35:54.845Z,4.67
2023-05-15T10:38:25.025Z,4.40
2023-05-15T10:41:13.172Z,4.73
2023-05-15T10:43:45.915Z,4.80
2023-05-15T10:46:14.966Z,4.90
2023-05-15T10:48:43.788Z,4.80
2023-05-15T10:51:17.098Z,4.87
2023-05-15T10:53:45.393Z,4.80
2023-05-15T10:56:16.586Z,4.43
2023-05-15T10:58:49.354Z,4.60
2023-05-15T11:01:32.058Z,4.63
2023-05-15T11:04:11.914Z,4.10
2023-05-15T11:06:40.938Z,4.10
2023-05-15T11:09:34.771Z,4.10
2023-05-15T11:12:05.555Z,4.50
2023-05-15T11:14:35.104Z,4.37
2023-05-15T11:17:05.618Z,4.70
2023-05-15T11:19:38.808Z,4.70
2023-05-15T11:22:20.844Z,4.67
2023-05-15T11:24:54.050Z,5.40
2023-05-15T11:27:25.108Z,5.30
2023-05-15T11:30:13.287Z,5.37
2023-05-15T11:32:42.712Z,5.70
2023-05-15T11:35:12.309Z,5.70
2023-05-15T11:37:44.039Z,5.70
2023-05-15T11:40:15.451Z,4.87
2023-05-15T11:43:03.910Z,4.50
2023-05-15T11:45:33.482Z,4.83
2023-05-15T11:48:07.027Z,4.70
2023-05-15T11:50:36.307Z,4.30
2023-05-15T11:53:06.327Z,4.40
2023-05-15T11:55:35.912Z,4.20
2023-05-15T11:58:06.706Z,4.10
2023-05-15T12:00:34.860Z,4.20
2023-05-15T12:03:04.896Z,4.17
2023-05-15T12:05:33.196Z,3.80
2023-05-15T12:08:03.335Z,3.10
2023-05-15T12:10:32.309Z,4.03
2023-05-15T12:13:00.751Z,3.57
2023-05-15T12:15:30.200Z,3.63
2023-05-15T12:17:58.393Z,3.90
2023-05-15T12:20:26.755Z,3.70
2023-05-15T12:22:55.120Z,3.70
2023-05-15T12:25:23.294Z,3.73
2023-05-15T12:27:51.722Z,3.67
2023-05-15T12:30:20.187Z,3.50
2023-05-15T12:32:50.071Z,3.60
2023-05-15T12:35:18.394Z,3.40
2023-05-15T12:37:46.841Z,3.80
2023-05-15T12:40:15.345Z,3.87
2023-05-15T12:42:44.808Z,4.20
2023-05-15T12:45:17.909Z,3.73
2023-05-15T12:47:47.262Z,3.50
2023-05-15T12:50:18.266Z,3.67
2023-05-15T12:52:53.772Z,3.47
2023-05-15T12:55:25.452Z,3.20
2023-05-15T12:57:53.875Z,3.53
2023-05-15T13:00:23.738Z,3.97
2023-05-15T13:02:53.820Z,4.27
2023-05-15T13:05:24.638Z,4.80
2023-05-15T13:07:53.043Z,4.73
2023-05-15T13:10:23.826Z,5.37
2023-05-15T13:12:53.705Z,5.00
2023-05-15T13:15:27.928Z,4.60
2023-05-15T13:18:00.044Z,4.03
2023-05-15T13:20:33.159Z,3.83
2023-05-15T13:23:02.334Z,3.90
2023-05-15T13:25:32.288Z,3.50
2023-05-15T13:28:03.655Z,4.30
2023-05-15T13:30:31.849Z,4.17
2023-05-15T13:33:00.205Z,3.83
2023-05-15T13:35:30.078Z,3.63
2023-05-15T13:37:58.237Z,4.03
2023-05-15T13:40:27.378Z,3.67
2023-05-15T13:42:55.702Z,2.50
2023-05-15T13:45:23.798Z,2.23
2023-05-15T13:47:52.393Z,2.40
2023-05-15T13:50:20.621Z,2.80
2023-05-15T13:52:50.173Z,3.63
2023-05-15T13:55:19.745Z,4.20
2023-05-15T13:57:49.550Z,3.80
2023-05-15T14:00:18.641Z,3.20
2023-05-15T14:02:46.818Z,3.03
2023-05-15T14:05:16.367Z,3.10
2023-05-15T14:07:44.943Z,3.17
2023-05-15T14:10:14.326Z,3.63
2023-05-15T14:12:43.553Z,2.67
2023-05-15T14:15:12.882Z,3.20
2023-05-15T14:17:41.386Z,3.00
2023-05-15T14:20:11.596Z,3.30
2023-05-15T14:22:40.168Z,3.27
2023-05-15T14:25:10.213Z,3.40
2023-05-15T14:27:39.578Z,3.13
2023-05-15T14:30:08.945Z,3.60
2023-05-15T14:32:36.982Z,3.37
2023-05-15T14:35:05.702Z,3.13
2023-05-15T14:37:33.756Z,3.30
2023-05-15T14:40:01.861Z,3.13
2023-05-15T14:42:29.906Z,3.60
2023-05-15T14:44:59.373Z,3.37
2023-05-15T14:47:29.987Z,3.27
2023-05-15T14:49:58.184Z,3.03
2023-05-15T14:52:26.298Z,3.00
2023-05-15T14:55:07.703Z,2.93
2023-05-15T14:57:37.100Z,3.00
2023-05-15T15:00:08.160Z,2.80
2023-05-15T15:02:36.349Z,2.90
2023-05-15T15:05:05.740Z,3.10
2023-05-15T15:08:01.665Z,3.10
2023-05-15T15:10:29.766Z,3.30
2023-05-15T15:12:58.158Z,3.10
2023-05-15T15:15:27.791Z,3.57
2023-05-15T15:17:57.794Z,3.40
2023-05-15T15:20:27.233Z,4.40
2023-05-15T15:22:57.183Z,4.50
2023-05-15T15:25:25.544Z,4.30
2023-05-15T15:27:53.840Z,3.83
2023-05-15T15:30:21.896Z,3.70
2023-05-15T15:32:51.392Z,3.37
2023-05-15T15:35:19.479Z,3.17
2023-05-15T15:37:47.638Z,3.00
2023-05-15T15:40:15.867Z,2.87
2023-05-15T15:42:44.009Z,2.87
2023-05-15T15:45:12.052Z,2.60
2023-05-15T15:47:40.065Z,2.70
2023-05-15T15:50:10.128Z,2.80
2023-05-15T15:52:38.247Z,2.40
2023-05-15T15:55:07.339Z,2.60
2023-05-15T15:57:35.315Z,2.43
2023-05-15T16:00:05.331Z,2.53
2023-05-15T16:02:33.401Z,2.57
2023-05-15T16:05:01.556Z,2.40
2023-05-15T16:07:30.988Z,2.30
2023-05-15T16:10:10.802Z,2.50
2023-05-15T16:12:42.271Z,2.20
2023-05-15T16:15:21.625Z,2.33
2023-05-15T16:17:53.021Z,2.20
2023-05-15T16:20:21.954Z,2.43
2023-05-15T16:22:51.658Z,2.40
2023-05-15T16:25:19.762Z,2.43
2023-05-15T16:27:47.826Z,2.50
2023-05-15T16:30:16.496Z,2.80
2023-05-15T16:32:44.656Z,2.70
2023-05-15T16:35:12.728Z,2.70
2023-05-15T16:37:40.788Z,2.80
2023-05-15T16:40:11.249Z,3.00
2023-05-15T16:42:41.376Z,3.03
2023-05-15T16:45:10.257Z,3.30
2023-05-15T16:47:39.839Z,3.23
2023-05-15T16:50:09.072Z,3.10
2023-05-15T16:52:38.651Z,2.93
2023-05-15T16:55:07.657Z,3.10
2023-05-15T16:57:37.129Z,3.17
2023-05-15T17:00:07.563Z,3.23
2023-05-15T17:02:35.739Z,2.87
2023-05-15T17:05:04.341Z,3.03
2023-05-15T17:07:34.049Z,3.00
2023-05-15T17:10:02.222Z,3.03
2023-05-15T17:12:31.500Z,3.93
2023-05-15T17:15:00.948Z,3.50
2023-05-15T17:17:29.110Z,3.60
2023-05-15T17:19:58.969Z,3.33
2023-05-15T17:22:28.980Z,4.03
2023-05-15T17:24:57.029Z,3.60
2023-05-15T17:27:25.084Z,4.20
2023-05-15T17:29:53.393Z,4.30
2023-05-15T17:32:23.241Z,3.63
2023-05-15T17:34:51.494Z,3.40
2023-05-15T17:37:19.606Z,3.50
2023-05-15T17:39:47.672Z,3.80
2023-05-15T17:42:15.803Z,3.50
2023-05-15T17:44:43.808Z,3.47
2023-05-15T17:47:11.934Z,3.70
2023-05-15T17:49:41.600Z,3.30
2023-05-15T17:52:11.062Z,3.97
2023-05-15T17:54:39.063Z,3.60
2023-05-15T17:57:07.650Z,5.53
2023-05-15T17:59:35.822Z,9.60
2023-05-15T18:02:04.181Z,4.33
2023-05-15T18:04:32.287Z,3.10
2023-05-15T18:07:01.845Z,3.20
2023-05-15T18:09:30.102Z,3.03
2023-05-15T18:11:58.360Z,3.20
2023-05-15T18:14:26.463Z,3.80
2023-05-15T18:16:54.513Z,4.33
2023-05-15T18:19:22.864Z,4.00
2023-05-15T18:21:52.712Z,3.60
2023-05-15T18:24:22.367Z,3.63
2023-05-15T18:26:50.583Z,8.80
2023-05-15T18:29:18.719Z,10.13
2023-05-15T18:31:46.977Z,21.10
2023-05-15T18:34:15.236Z,17.60
2023-05-15T18:36:43.399Z,17.37
2023-05-15T18:39:11.460Z,6.27
2023-05-15T18:41:41.211Z,4.30
2023-05-15T18:44:09.325Z,3.83
2023-05-15T18:46:37.874Z,3.73
2023-05-15T18:49:06.153Z,3.83
2023-05-15T18:51:35.028Z,3.47
2023-05-15T18:54:04.041Z,3.80
2023-05-15T18:56:33.129Z,3.90
2023-05-15T18:59:02.658Z,3.80
2023-05-15T19:01:30.906Z,4.17
2023-05-15T19:03:59.005Z,4.20
2023-05-15T19:06:27.152Z,4.10
2023-05-15T19:08:55.251Z,3.80
2023-05-15T19:11:23.263Z,4.60
2023-05-15T19:13:51.400Z,4.40
2023-05-15T19:16:20.852Z,4.40
2023-05-15T19:18:49.068Z,4.10
2023-05-15T19:21:17.638Z,5.10
2023-05-15T19:23:45.767Z,5.27
2023-05-15T19:26:13.878Z,4.57
2023-05-15T19:28:41.985Z,4.03
2023-05-15T19:31:20.228Z,3.60
2023-05-15T19:33:59.678Z,3.93
2023-05-15T19:36:28.084Z,3.80
2023-05-15T19:38:56.282Z,3.40
2023-05-15T19:41:24.405Z,9.20
2023-05-15T19:43:52.515Z,6.00
2023-05-15T19:46:20.843Z,3.73
2023-05-15T19:48:49.009Z,3.50
2023-05-15T19:51:18.633Z,3.70
2023-05-15T19:53:46.706Z,3.53
2023-05-15T19:56:14.846Z,3.63
2023-05-15T19:58:42.959Z,3.60
2023-05-15T20:01:11.243Z,3.80
2023-05-15T20:03:39.498Z,3.97
2023-05-15T20:06:07.670Z,4.67
2023-05-15T20:08:37.157Z,4.40
2023-05-15T20:11:05.191Z,4.13
2023-05-15T20:13:34.348Z,4.20
2023-05-15T20:16:07.001Z,4.83
2023-05-15T20:18:35.647Z,4.50
2023-05-15T20:21:03.715Z,4.60
2023-05-15T20:23:31.822Z,4.53
2023-05-15T20:26:01.214Z,4.03
2023-05-15T20:28:29.671Z,4.00
2023-05-15T20:30:58.404Z,4.37
2023-05-15T20:33:26.500Z,4.40
2023-05-15T20:35:54.733Z,4.57
2023-05-15T20:38:25.271Z,4.77
2023-05-15T20:40:53.605Z,4.50
2023-05-15T20:43:22.995Z,4.67
2023-05-15T20:45:51.118Z,4.50
2023-05-15T20:48:19.075Z,4.40
2023-05-15T20:50:47.071Z,4.00
2023-05-15T20:53:15.200Z,4.20
2023-05-15T20:55:43.298Z,4.90
2023-05-15T20:58:11.421Z,4.47
2023-05-15T21:00:40.838Z,4.40
2023-05-15T21:03:09.436Z,4.70
2023-05-15T21:05:37.568Z,4.83
2023-05-15T21:08:05.713Z,4.90
2023-05-15T21:10:33.798Z,4.70
2023-05-15T21:13:01.808Z,4.70
2023-05-15T21:15:29.839Z,4.70
2023-05-15T21:17:59.304Z,4.87
2023-05-15T21:20:27.663Z,5.20
2023-05-15T21:22:56.053Z,4.90
2023-05-15T21:25:24.131Z,5.13
2023-05-15T21:27:52.077Z,4.70
2023-05-15T21:30:20.557Z,5.10
2023-05-15T21:32:48.659Z,5.23
2023-05-15T21:35:17.987Z,4.97
2023-05-15T21:37:46.390Z,4.80
2023-05-15T21:40:14.838Z,4.53
2023-05-15T21:42:43.212Z,4.80
2023-05-15T21:45:11.735Z,4.60
2023-05-15T21:47:39.794Z,3.87
2023-05-15T21:50:08.694Z,4.27
2023-05-15T21:52:38.062Z,4.50
2023-05-15T21:55:06.930Z,5.50
2023-05-15T21:57:34.993Z,4.07
2023-05-15T22:00:04.869Z,3.70
2023-05-15T22:02:32.916Z,3.80
2023-05-15T22:05:01.584Z,3.63
2023-05-15T22:07:29.630Z,4.10
2023-05-15T22:09:59.150Z,4.13
2023-05-15T22:12:27.185Z,3.90
2023-05-15T22:14:58.875Z,3.63
2023-05-15T22:17:29.053Z,3.97
2023-05-15T22:20:06.334Z,4.07
2023-05-15T22:22:34.687Z,3.70
2023-05-15T22:25:04.260Z,4.13
2023-05-15T22:27:32.677Z,4.03
2023-05-15T22:30:00.723Z,3.80
2023-05-15T22:32:28.912Z,4.30
2023-05-15T22:34:57.099Z,4.27
2023-05-15T22:37:25.117Z,4.37
2023-05-15T22:39:53.337Z,4.27
2023-05-15T22:42:23.907Z,4.57
2023-05-15T22:44:52.136Z,4.27
2023-05-15T22:47:20.197Z,4.40
2023-05-15T22:49:48.308Z,4.20
2023-05-15T22:52:16.302Z,4.50
2023-05-15T22:54:44.324Z,4.50
2023-05-15T22:57:12.419Z,4.20
2023-05-15T22:59:42.394Z,4.30
2023-05-15T23:02:10.450Z,4.20
2023-05-15T23:04:38.444Z,4.90
2023-05-15T23:07:06.821Z,4.47
2023-05-15T23:09:34.834Z,4.63
2023-05-15T23:12:04.388Z,4.70
2023-05-15T23:14:32.453Z,4.60
2023-05-15T23:17:01.873Z,4.60
2023-05-15T23:19:29.831Z,4.40
2023-05-15T23:21:57.893Z,4.40
2023-05-15T23:24:25.963Z,4.33
2023-05-15T23:26:54.040Z,4.30
2023-05-15T23:29:22.075Z,4.87
2023-05-15T23:31:50.200Z,4.70
2023-05-15T23:34:19.604Z,5.00
2023-05-15T23:36:47.588Z,4.67
2023-05-15T23:39:15.942Z,5.00
2023-05-15T23:41:43.968Z,5.20
2023-05-15T23:44:11.938Z,4.77
2023-05-15T23:46:39.911Z,5.10
2023-05-15T23:49:07.963Z,5.30
2023-05-15T23:51:37.308Z,4.90
2023-05-15T23:54:05.325Z,4.90
2023-05-15T23:56:33.275Z,4.90
2023-05-15T23:59:01.525Z,4.90
